Frankfurt am Main International Airport EDDF

Flugplatz Daten

Name: Frankfurt am Main International Airport

Ident: EDDF

Lat: 50,02640152

Long: 8,543129921

Platzhöhe: 364 ft

IataCode: FRA

City: Frankfurt-am-Main

Homepage: http://www.airportcity-frankfurt.com/

Metar

2021/10/25 23:50
EDDF 252350Z VRB02KT 9999 FEW036 BKN045 07/06 Q1020 NOSIG

Taf

2021/10/25 00:39
TAF EDDF 252300Z 2600/2706 21003KT 9999 BKN030
TEMPO 2600/2607 4000 -RA BR BKN009
BECMG 2608/2610 22008KT
BECMG 2616/2618 21003KT FEW030

Webcams

Highway
Gewünschte Webcam nicht vorhanden? Dann fügen Sie eine hinzu. Sie wird dann so schnell wie möglich freigeschaltet
Url: Title: